createdAt,value
2022-10-20T00:03:58.126Z,21.25
2022-10-20T00:09:05.336Z,13.40
2022-10-20T00:14:09.104Z,13.93
2022-10-20T00:19:13.499Z,15.55
2022-10-20T00:24:20.776Z,17.42
2022-10-20T00:29:24.495Z,18.40
2022-10-20T00:34:28.145Z,14.90
2022-10-20T00:39:33.385Z,15.20
2022-10-20T00:45:01.667Z,14.87
2022-10-20T00:55:16.493Z,25.02
2022-10-20T01:05:24.003Z,16.33
2022-10-20T01:10:37.291Z,14.23
2022-10-20T01:15:47.204Z,17.12
2022-10-20T01:21:05.684Z,20.92
2022-10-20T01:31:31.735Z,14.77
2022-10-20T01:36:40.834Z,21.05
2022-10-20T01:41:50.362Z,16.75
2022-10-20T01:46:57.840Z,23.83
2022-10-20T01:52:01.807Z,22.08
2022-10-20T01:57:18.792Z,20.95
2022-10-20T02:02:36.547Z,18.80
2022-10-20T02:07:40.711Z,22.50
2022-10-20T02:12:50.065Z,23.25
2022-10-20T02:18:01.906Z,24.50
2022-10-20T02:23:07.590Z,23.65
2022-10-20T02:28:14.203Z,23.38
2022-10-20T02:33:21.073Z,21.95
2022-10-20T02:38:24.891Z,21.52
2022-10-20T02:43:28.547Z,23.62
2022-10-20T02:48:33.564Z,27.50
2022-10-20T02:53:37.216Z,24.10
2022-10-20T02:58:40.860Z,24.63
2022-10-20T03:03:45.948Z,20.65
2022-10-20T03:08:49.615Z,21.75
2022-10-20T03:13:53.358Z,31.83
2022-10-20T03:19:01.593Z,21.10
2022-10-20T03:24:08.426Z,25.67
2022-10-20T03:29:12.079Z,22.95
2022-10-20T03:34:17.132Z,31.00
2022-10-20T03:39:20.947Z,26.62
2022-10-20T03:44:24.675Z,25.52
2022-10-20T03:49:31.503Z,25.75
2022-10-20T03:54:36.928Z,29.52
2022-10-20T03:59:40.789Z,24.15
2022-10-20T04:04:45.813Z,29.12
2022-10-20T04:09:49.451Z,32.40
2022-10-20T04:14:53.107Z,28.25
2022-10-20T04:19:58.082Z,34.70
2022-10-20T04:25:01.833Z,28.48
2022-10-20T04:30:06.100Z,30.45
2022-10-20T04:35:11.408Z,32.45
2022-10-20T04:40:15.032Z,33.42
2022-10-20T04:45:18.977Z,29.17
2022-10-20T04:50:24.136Z,30.58
2022-10-20T04:55:42.858Z,28.60
2022-10-20T05:00:46.512Z,29.67
2022-10-20T05:05:51.471Z,35.17
2022-10-20T05:10:55.151Z,29.73
2022-10-20T05:15:58.836Z,29.17
2022-10-20T05:21:09.701Z,34.60
2022-10-20T05:26:15.884Z,32.40
2022-10-20T05:31:22.218Z,31.55
2022-10-20T05:36:28.348Z,32.58
2022-10-20T05:41:36.473Z,30.00
2022-10-20T05:46:42.829Z,29.75
2022-10-20T05:51:48.799Z,34.17
2022-10-20T05:56:52.471Z,35.85
2022-10-20T06:01:56.224Z,33.88
2022-10-20T06:07:01.263Z,32.88
2022-10-20T06:12:05.787Z,38.25
2022-10-20T06:17:10.671Z,32.90
2022-10-20T06:22:15.712Z,34.30
2022-10-20T06:27:19.388Z,32.25
2022-10-20T06:32:23.101Z,35.65
2022-10-20T06:37:28.136Z,36.65
2022-10-20T06:42:32.191Z,30.67
2022-10-20T06:47:37.184Z,29.05
2022-10-20T06:52:42.381Z,31.23
2022-10-20T06:57:46.045Z,29.65
2022-10-20T07:02:49.804Z,31.67
2022-10-20T07:07:54.995Z,30.70
2022-10-20T07:12:58.757Z,29.83
2022-10-20T07:18:02.519Z,27.62
2022-10-20T07:23:07.542Z,28.30
2022-10-20T07:28:11.195Z,30.12
2022-10-20T07:33:14.854Z,27.52
2022-10-20T07:38:19.893Z,25.98
2022-10-20T07:43:23.631Z,25.02
2022-10-20T07:48:27.597Z,26.15
2022-10-20T07:53:32.633Z,27.70
2022-10-20T07:58:36.307Z,30.00
2022-10-20T08:03:40.201Z,23.52
2022-10-20T08:08:45.257Z,24.58
2022-10-20T08:13:49.072Z,22.13
2022-10-20T08:19:06.741Z,23.45
2022-10-20T08:24:11.736Z,22.70
2022-10-20T08:29:15.441Z,21.20
2022-10-20T08:34:19.123Z,24.55
2022-10-20T08:39:24.458Z,25.08
2022-10-20T08:44:31.460Z,24.02
2022-10-20T08:49:36.580Z,25.83
2022-10-20T08:54:41.752Z,19.25
2022-10-20T08:59:45.520Z,19.05
2022-10-20T09:04:52.592Z,21.37
2022-10-20T09:10:05.621Z,23.42
2022-10-20T09:15:12.095Z,22.05
2022-10-20T09:20:21.760Z,22.42
2022-10-20T09:25:27.599Z,18.30
2022-10-20T09:30:35.457Z,22.90
2022-10-20T09:35:40.868Z,20.35
2022-10-20T09:40:54.764Z,19.90
2022-10-20T09:46:04.925Z,19.37
2022-10-20T09:51:15.667Z,26.45
2022-10-20T09:56:27.307Z,23.23
2022-10-20T10:01:31.462Z,23.48
2022-10-20T10:06:42.887Z,22.13
2022-10-20T10:11:48.042Z,28.08
2022-10-20T10:16:51.992Z,21.75
2022-10-20T10:21:58.163Z,27.42
2022-10-20T10:27:03.421Z,24.80
2022-10-20T10:32:16.149Z,26.02
2022-10-20T10:42:44.124Z,26.67
2022-10-20T10:48:16.941Z,33.13
2022-10-20T10:53:29.859Z,28.73
2022-10-20T10:58:46.006Z,27.65
2022-10-20T11:04:07.477Z,35.35
2022-10-20T11:09:23.848Z,32.20
2022-10-20T11:14:42.823Z,29.27
2022-10-20T11:20:12.164Z,34.45
2022-10-20T11:25:28.340Z,30.12
2022-10-20T11:30:35.302Z,30.48
2022-10-20T11:35:43.315Z,32.78
2022-10-20T11:40:53.649Z,29.48
2022-10-20T11:46:03.597Z,28.10
2022-10-20T11:51:46.280Z,35.55
2022-10-20T11:56:59.835Z,31.92
2022-10-20T12:02:25.461Z,33.90
2022-10-20T12:08:24.740Z,31.45
2022-10-20T12:13:36.511Z,32.13
2022-10-20T12:19:07.661Z,30.48
2022-10-20T12:24:44.131Z,28.90
2022-10-20T12:30:00.638Z,27.30
2022-10-20T12:35:31.601Z,31.45
2022-10-20T12:40:45.191Z,30.05
2022-10-20T12:45:49.162Z,26.70
2022-10-20T12:50:55.040Z,21.05
2022-10-20T12:56:00.921Z,18.83
2022-10-20T13:01:09.833Z,19.23
2022-10-20T13:06:43.741Z,20.10
2022-10-20T13:11:57.686Z,26.40
2022-10-20T13:17:13.777Z,18.83
2022-10-20T13:22:38.951Z,14.10
2022-10-20T13:27:42.744Z,13.95
2022-10-20T13:33:11.465Z,14.05
2022-10-20T13:38:27.521Z,17.10
2022-10-20T13:43:39.336Z,19.65
2022-10-20T13:48:56.884Z,11.38
2022-10-20T13:54:05.645Z,12.13
2022-10-20T14:04:29.698Z,12.95
2022-10-20T14:09:35.038Z,23.00
2022-10-20T14:14:44.638Z,14.00
2022-10-20T14:19:48.476Z,15.88
2022-10-20T14:24:55.726Z,11.70
2022-10-20T14:30:00.833Z,13.90
2022-10-20T14:35:19.919Z,9.25
2022-10-20T14:40:27.807Z,12.88
2022-10-20T14:50:40.975Z,9.57
2022-10-20T14:55:46.119Z,10.80
2022-10-20T15:00:49.948Z,8.50
2022-10-20T15:05:53.938Z,7.72
2022-10-20T15:10:59.597Z,7.95
2022-10-20T15:16:04.694Z,10.65
2022-10-20T15:21:09.144Z,9.60
2022-10-20T15:26:15.323Z,7.75
2022-10-20T15:31:23.382Z,15.65
2022-10-20T15:36:31.897Z,17.87
2022-10-20T15:41:37.864Z,10.25
2022-10-20T15:46:42.220Z,12.30
2022-10-20T15:51:47.181Z,14.00
2022-10-20T15:56:52.252Z,16.80
2022-10-20T16:01:56.005Z,10.52
2022-10-20T16:07:02.813Z,17.08
2022-10-20T16:12:08.438Z,11.67
2022-10-20T16:17:12.148Z,34.03
2022-10-20T16:22:15.936Z,26.35
2022-10-20T16:27:21.018Z,23.73
2022-10-20T16:32:25.032Z,17.17
2022-10-20T16:37:28.789Z,27.10
2022-10-20T16:42:33.877Z,28.87
2022-10-20T16:47:37.852Z,17.77
2022-10-20T16:52:41.719Z,19.50
2022-10-20T16:57:46.712Z,15.48
2022-10-20T17:02:52.911Z,15.05
2022-10-20T17:07:56.644Z,19.45
2022-10-20T17:13:01.797Z,12.48
2022-10-20T17:18:05.586Z,15.15
2022-10-20T17:23:09.288Z,12.43
2022-10-20T17:28:14.312Z,13.40
2022-10-20T17:33:18.138Z,15.07
2022-10-20T17:38:22.574Z,14.43
2022-10-20T17:43:28.981Z,16.67
2022-10-20T17:48:33.113Z,18.10
2022-10-20T17:53:38.440Z,20.65
2022-10-20T17:58:45.699Z,17.00
2022-10-20T18:03:54.456Z,26.85
2022-10-20T18:08:59.873Z,19.67
2022-10-20T18:14:06.043Z,20.23
2022-10-20T18:19:14.849Z,18.20
2022-10-20T18:24:19.411Z,19.37
2022-10-20T18:29:25.519Z,14.80
2022-10-20T18:34:29.291Z,18.12
2022-10-20T18:39:33.086Z,14.57
2022-10-20T18:44:38.080Z,21.58
2022-10-20T18:49:41.883Z,18.50
2022-10-20T18:54:45.604Z,15.32
2022-10-20T18:59:51.768Z,25.33
2022-10-20T19:04:55.999Z,15.35
2022-10-20T19:09:59.686Z,19.73
2022-10-20T19:15:05.141Z,22.55
2022-10-20T19:20:09.252Z,18.42
2022-10-20T19:25:12.934Z,18.37
2022-10-20T19:30:18.449Z,18.27
2022-10-20T19:35:22.348Z,20.52
2022-10-20T19:40:28.329Z,20.55
2022-10-20T19:45:33.738Z,23.00
2022-10-20T19:50:37.527Z,18.37
2022-10-20T19:55:41.224Z,19.90
2022-10-20T20:00:47.152Z,18.02
2022-10-20T20:05:58.139Z,17.85
2022-10-20T20:11:03.427Z,20.50
2022-10-20T20:16:09.868Z,21.98
2022-10-20T20:21:14.414Z,17.40
2022-10-20T20:26:18.164Z,15.02
2022-10-20T20:31:24.187Z,19.25
2022-10-20T20:36:28.703Z,18.60
2022-10-20T20:41:32.407Z,21.58
2022-10-20T20:46:37.896Z,19.08
2022-10-20T20:51:41.558Z,20.23
2022-10-20T20:56:45.249Z,18.73
2022-10-20T21:01:50.383Z,18.87
2022-10-20T21:07:02.071Z,21.58
2022-10-20T21:12:06.329Z,16.25
2022-10-20T21:17:11.459Z,23.98
2022-10-20T21:22:15.154Z,15.30
2022-10-20T21:27:18.822Z,14.52
2022-10-20T21:32:23.924Z,17.30
2022-10-20T21:37:29.096Z,19.40
2022-10-20T21:42:32.775Z,16.55
2022-10-20T21:47:37.876Z,23.00
2022-10-20T21:52:41.517Z,19.23
2022-10-20T21:57:45.269Z,18.62
2022-10-20T22:02:51.017Z,18.95
2022-10-20T22:07:54.688Z,17.52
2022-10-20T22:12:58.406Z,21.75
2022-10-20T22:18:03.492Z,16.05
2022-10-20T22:23:07.135Z,24.75
2022-10-20T22:28:10.807Z,23.27
2022-10-20T22:33:15.825Z,26.45
2022-10-20T22:38:19.627Z,19.05
2022-10-20T22:43:23.267Z,17.67
2022-10-20T22:48:28.444Z,22.25
2022-10-20T22:53:32.190Z,21.00
2022-10-20T22:58:35.944Z,21.10
2022-10-20T23:03:41.588Z,16.15
2022-10-20T23:08:46.933Z,17.05
2022-10-20T23:13:51.146Z,17.98
2022-10-20T23:18:56.372Z,29.48
2022-10-20T23:24:00.042Z,20.88
2022-10-20T23:29:03.656Z,23.52
2022-10-20T23:34:09.808Z,19.30
2022-10-20T23:39:13.553Z,22.30
2022-10-20T23:44:17.281Z,20.25
2022-10-20T23:49:22.260Z,19.62
2022-10-20T23:54:26.088Z,22.13
2022-10-20T23:59:29.710Z,22.60
